createdAt,value
2018-10-09T00:01:51.774Z,98322.45
2018-10-09T00:04:21.783Z,98329.97
2018-10-09T00:06:51.473Z,98322.97
2018-10-09T00:09:21.045Z,98328.08
2018-10-09T00:11:50.549Z,98324.56
2018-10-09T00:14:20.077Z,98320.09
2018-10-09T00:16:49.492Z,98321.12
2018-10-09T00:19:19.707Z,98318.25
2018-10-09T00:21:49.222Z,98327.56
2018-10-09T00:24:18.922Z,98328.64
2018-10-09T00:26:48.595Z,98331.13
2018-10-09T00:29:17.926Z,98333.66
2018-10-09T00:31:47.329Z,98333.10
2018-10-09T00:34:16.672Z,98340.83
2018-10-09T00:36:46.071Z,98337.18
2018-10-09T00:39:15.401Z,98333.44
2018-10-09T00:41:44.697Z,98333.31
2018-10-09T00:44:14.142Z,98327.86
2018-10-09T00:46:43.460Z,98324.80
2018-10-09T00:49:12.772Z,98326.91
2018-10-09T00:51:42.136Z,98320.02
2018-10-09T00:54:11.475Z,98323.10
2018-10-09T00:56:40.806Z,98310.70
2018-10-09T00:59:10.134Z,98314.99
2018-10-09T01:01:39.405Z,98305.63
2018-10-09T01:04:08.675Z,98311.39
2018-10-09T01:06:37.955Z,98307.09
2018-10-09T01:09:08.690Z,98313.23
2018-10-09T01:11:38.008Z,98306.83
2018-10-09T01:14:07.318Z,98302.20
2018-10-09T01:16:36.750Z,98306.84
2018-10-09T01:19:06.170Z,98302.25
2018-10-09T01:21:35.807Z,98305.42
2018-10-09T01:24:05.099Z,98305.94
2018-10-09T01:26:34.363Z,98309.37
2018-10-09T01:29:03.667Z,98312.08
2018-10-09T01:31:32.969Z,98315.84
2018-10-09T01:34:02.267Z,98311.81
2018-10-09T01:36:31.537Z,98318.52
2018-10-09T01:39:00.820Z,98313.36
2018-10-09T01:41:30.086Z,98317.48
2018-10-09T01:43:59.395Z,98309.84
2018-10-09T01:46:28.765Z,98309.66
2018-10-09T01:48:58.274Z,98307.14
2018-10-09T01:51:27.690Z,98307.31
2018-10-09T01:53:57.234Z,98313.06
2018-10-09T01:56:26.842Z,98307.48
2018-10-09T01:58:56.507Z,98300.27
2018-10-09T02:01:26.044Z,98299.42
2018-10-09T02:03:55.722Z,98295.52
2018-10-09T02:06:25.412Z,98295.43
2018-10-09T02:08:55.029Z,98288.38
2018-10-09T02:11:24.646Z,98287.22
2018-10-09T02:13:54.331Z,98281.64
2018-10-09T02:16:23.924Z,98276.83
2018-10-09T02:18:53.868Z,98280.42
2018-10-09T02:21:23.484Z,98279.39
2018-10-09T02:23:53.084Z,98276.59
2018-10-09T02:26:22.897Z,98275.65
2018-10-09T02:28:52.563Z,98270.03
2018-10-09T02:31:22.217Z,98269.63
2018-10-09T02:33:52.141Z,98274.23
2018-10-09T02:36:22.296Z,98274.02
2018-10-09T02:38:52.071Z,98273.13
2018-10-09T02:41:21.915Z,98276.77
2018-10-09T02:43:51.815Z,98281.23
2018-10-09T02:46:21.633Z,98278.31
2018-10-09T02:48:51.194Z,98272.56
2018-10-09T02:51:20.881Z,98281.27
2018-10-09T02:53:50.465Z,98285.34
2018-10-09T02:56:20.009Z,98283.20
2018-10-09T02:58:49.644Z,98288.90
2018-10-09T03:01:18.996Z,98283.28
2018-10-09T03:03:48.360Z,98288.86
2018-10-09T03:06:17.653Z,98293.58
2018-10-09T03:08:47.078Z,98293.80
2018-10-09T03:11:16.514Z,98295.08
2018-10-09T03:13:45.890Z,98290.23
2018-10-09T03:16:15.196Z,98289.42
2018-10-09T03:18:44.512Z,98287.10
2018-10-09T03:21:13.783Z,98284.95
2018-10-09T03:23:43.186Z,98285.30
2018-10-09T03:26:12.420Z,98276.72
2018-10-09T03:28:41.806Z,98276.13
2018-10-09T03:31:11.110Z,98283.98
2018-10-09T03:33:40.378Z,98285.26
2018-10-09T03:36:09.796Z,98279.84
2018-10-09T03:38:39.074Z,98274.75
2018-10-09T03:41:08.503Z,98279.94
2018-10-09T03:43:37.803Z,98278.64
2018-10-09T03:46:07.497Z,98283.56
2018-10-09T03:48:37.328Z,98292.92
2018-10-09T03:51:06.729Z,98286.47
2018-10-09T03:53:36.183Z,98290.48
2018-10-09T03:56:05.483Z,98298.78
2018-10-09T03:58:34.749Z,98299.70
2018-10-09T04:01:04.095Z,98298.16
2018-10-09T04:06:08.083Z,98285.30
2018-10-09T04:08:37.382Z,98289.77
2018-10-09T04:11:06.695Z,98295.91
2018-10-09T04:13:36.021Z,98302.66
2018-10-09T04:16:05.263Z,98297.23
2018-10-09T04:18:34.560Z,98303.20
2018-10-09T04:21:03.854Z,98301.22
2018-10-09T04:23:33.096Z,98308.02
2018-10-09T04:26:02.367Z,98307.02
2018-10-09T04:28:31.626Z,98311.66
2018-10-09T04:31:01.016Z,98319.11
2018-10-09T04:33:30.358Z,98314.80
2018-10-09T04:35:59.844Z,98321.48
2018-10-09T04:38:29.401Z,98321.35
2018-10-09T04:40:58.776Z,98322.81
2018-10-09T04:43:31.004Z,98327.70
2018-10-09T04:46:00.283Z,98327.80
2018-10-09T04:48:29.607Z,98323.23
2018-10-09T04:51:01.113Z,98318.91
2018-10-09T04:53:30.402Z,98322.67
2018-10-09T04:55:59.799Z,98314.77
2018-10-09T04:58:29.147Z,98309.49
2018-10-09T05:00:58.466Z,98313.12
2018-10-09T05:03:27.817Z,98322.60
2018-10-09T05:05:57.305Z,98312.31
2018-10-09T05:08:26.744Z,98312.20
2018-10-09T05:10:56.281Z,98319.36
2018-10-09T05:13:25.617Z,98309.32
2018-10-09T05:15:55.138Z,98308.80
2018-10-09T05:18:24.587Z,98315.16
2018-10-09T05:20:54.143Z,98323.05
2018-10-09T05:23:23.648Z,98323.95
2018-10-09T05:25:53.286Z,98328.08
2018-10-09T05:28:22.825Z,98331.52
2018-10-09T05:30:52.463Z,98334.13
2018-10-09T05:33:21.936Z,98337.34
2018-10-09T05:35:51.701Z,98340.14
2018-10-09T05:38:21.302Z,98340.44
2018-10-09T05:40:50.746Z,98342.46
2018-10-09T05:43:20.252Z,98348.95
2018-10-09T05:45:49.737Z,98348.73
2018-10-09T05:48:19.116Z,98349.29
2018-10-09T05:50:48.547Z,98345.25
2018-10-09T05:53:17.888Z,98355.68
2018-10-09T05:55:47.229Z,98361.22
2018-10-09T05:58:16.546Z,98359.67
2018-10-09T06:00:45.878Z,98357.83
2018-10-09T06:03:15.684Z,98353.53
2018-10-09T06:05:45.062Z,98355.28
2018-10-09T06:08:14.331Z,98363.70
2018-10-09T06:10:43.642Z,98357.47
2018-10-09T06:13:13.055Z,98357.16
2018-10-09T06:15:42.690Z,98358.05
2018-10-09T06:18:11.972Z,98359.66
2018-10-09T06:20:41.470Z,98359.84
2018-10-09T06:23:10.894Z,98353.41
2018-10-09T06:25:40.536Z,98354.74
2018-10-09T06:28:09.967Z,98354.70
2018-10-09T06:30:39.351Z,98354.70
2018-10-09T06:33:08.686Z,98358.59
2018-10-09T06:35:38.099Z,98350.66
2018-10-09T06:38:07.354Z,98347.73
2018-10-09T06:40:36.747Z,98353.16
2018-10-09T06:43:06.175Z,98350.30
2018-10-09T06:45:35.438Z,98354.02
2018-10-09T06:48:04.746Z,98357.09
2018-10-09T06:50:34.043Z,98354.16
2018-10-09T06:53:03.386Z,98361.03
2018-10-09T06:55:32.669Z,98363.98
2018-10-09T06:58:02.055Z,98357.44
2018-10-09T07:00:31.546Z,98359.78
2018-10-09T07:03:00.875Z,98354.53
2018-10-09T07:05:30.171Z,98362.78
2018-10-09T07:07:59.503Z,98367.59
2018-10-09T07:10:28.805Z,98369.77
2018-10-09T07:12:58.177Z,98364.41
2018-10-09T07:15:27.484Z,98366.97
2018-10-09T07:17:56.782Z,98369.70
2018-10-09T07:20:26.234Z,98367.37
2018-10-09T07:22:55.812Z,98373.11
2018-10-09T07:25:25.289Z,98369.20
2018-10-09T07:27:54.851Z,98368.83
2018-10-09T07:30:24.303Z,98371.06
2018-10-09T07:32:53.947Z,98371.21
2018-10-09T07:35:23.523Z,98376.03
2018-10-09T07:37:53.140Z,98374.06
2018-10-09T07:40:22.638Z,98379.11
2018-10-09T07:42:52.343Z,98376.59
2018-10-09T07:45:21.951Z,98376.98
2018-10-09T07:47:51.719Z,98393.23
2018-10-09T07:50:21.748Z,98400.86
2018-10-09T07:52:51.903Z,98398.52
2018-10-09T07:55:21.670Z,98399.75
2018-10-09T07:57:51.165Z,98400.70
2018-10-09T08:00:20.881Z,98403.86
2018-10-09T08:02:51.258Z,98403.34
2018-10-09T08:05:21.602Z,98401.48
2018-10-09T08:07:51.355Z,98402.22
2018-10-09T08:10:21.065Z,98396.94
2018-10-09T08:12:50.713Z,98404.85
2018-10-09T08:15:20.211Z,98400.80
2018-10-09T08:17:49.735Z,98399.61
2018-10-09T08:20:19.099Z,98401.34
2018-10-09T08:22:48.470Z,98399.47
2018-10-09T08:25:17.920Z,98399.76
2018-10-09T08:27:47.282Z,98405.83
2018-10-09T08:30:16.637Z,98401.00
2018-10-09T08:32:46.013Z,98398.95
2018-10-09T08:35:15.451Z,98402.33
2018-10-09T08:37:44.778Z,98398.39
2018-10-09T08:40:14.138Z,98398.95
2018-10-09T08:42:43.567Z,98401.89
2018-10-09T08:45:12.995Z,98400.30
2018-10-09T08:47:42.446Z,98399.02
2018-10-09T08:50:11.793Z,98400.08
2018-10-09T08:52:41.174Z,98405.72
2018-10-09T08:55:10.575Z,98411.66
2018-10-09T08:57:39.938Z,98406.34
2018-10-09T09:00:10.016Z,98408.48
2018-10-09T09:02:39.346Z,98411.98
2018-10-09T09:05:08.942Z,98411.70
2018-10-09T09:07:38.311Z,98413.13
2018-10-09T09:10:07.980Z,98415.53
2018-10-09T09:12:37.312Z,98415.52
2018-10-09T09:15:07.328Z,98421.11
2018-10-09T09:17:36.771Z,98412.80
2018-10-09T09:20:06.174Z,98413.05
2018-10-09T09:22:35.631Z,98419.48
2018-10-09T09:25:04.960Z,98423.27
2018-10-09T09:27:34.314Z,98421.05
2018-10-09T09:30:03.625Z,98418.36
2018-10-09T09:32:33.036Z,98414.34
2018-10-09T09:35:02.391Z,98412.54
2018-10-09T09:37:31.668Z,98411.45
2018-10-09T09:40:00.951Z,98403.56
2018-10-09T09:42:30.276Z,98400.82
2018-10-09T09:44:59.564Z,98395.91
2018-10-09T09:47:28.951Z,98393.87
2018-10-09T09:49:58.370Z,98385.80
2018-10-09T09:52:27.971Z,98386.70
2018-10-09T09:54:57.486Z,98386.70
2018-10-09T09:57:27.073Z,98384.66
2018-10-09T09:59:56.472Z,98386.88
2018-10-09T10:02:25.965Z,98383.78
2018-10-09T10:04:55.478Z,98381.47
2018-10-09T10:07:25.315Z,98377.70
2018-10-09T10:09:54.916Z,98379.58
2018-10-09T10:12:24.465Z,98367.63
2018-10-09T10:14:53.979Z,98372.91
2018-10-09T10:17:23.563Z,98368.73
2018-10-09T10:19:53.049Z,98374.45
2018-10-09T10:22:22.648Z,98373.62
2018-10-09T10:24:52.124Z,98370.17
2018-10-09T10:27:21.719Z,98368.59
2018-10-09T10:29:51.217Z,98365.30
2018-10-09T10:32:20.809Z,98362.52
2018-10-09T10:34:50.393Z,98358.14
2018-10-09T10:37:19.902Z,98352.74
2018-10-09T10:39:52.644Z,98353.31
2018-10-09T10:42:22.989Z,98349.33
2018-10-09T10:44:52.674Z,98345.39
2018-10-09T10:47:22.348Z,98348.52
2018-10-09T10:49:51.961Z,98341.54
2018-10-09T10:52:21.955Z,98344.38
2018-10-09T10:54:51.572Z,98344.72
2018-10-09T10:57:21.283Z,98339.11
2018-10-09T10:59:50.806Z,98336.54
2018-10-09T11:02:20.312Z,98344.52
2018-10-09T11:04:49.921Z,98328.39
2018-10-09T11:07:19.319Z,98325.34
2018-10-09T11:09:48.712Z,98323.02
2018-10-09T11:12:17.996Z,98323.66
2018-10-09T11:14:47.450Z,98329.97
2018-10-09T11:17:16.838Z,98316.59
2018-10-09T11:19:47.393Z,98323.67
2018-10-09T11:22:16.681Z,98318.91
2018-10-09T11:24:46.015Z,98325.00
2018-10-09T11:27:15.381Z,98323.73
2018-10-09T11:29:44.718Z,98319.16
2018-10-09T11:32:15.239Z,98315.87
2018-10-09T11:34:47.053Z,98317.09
2018-10-09T11:37:18.418Z,98314.45
2018-10-09T11:39:47.788Z,98311.66
2018-10-09T11:42:17.103Z,98307.66
2018-10-09T11:44:46.567Z,98305.52
2018-10-09T11:47:16.078Z,98301.50
2018-10-09T11:49:45.441Z,98302.20
2018-10-09T11:52:14.816Z,98298.06
2018-10-09T11:54:44.484Z,98300.16
2018-10-09T11:57:15.593Z,98294.21
2018-10-09T11:59:45.124Z,98294.52
2018-10-09T12:02:14.536Z,98292.44
2018-10-09T12:04:44.683Z,98289.20
2018-10-09T12:07:14.088Z,98286.00
2018-10-09T12:09:43.735Z,98285.78
2018-10-09T12:12:13.400Z,98278.87
2018-10-09T12:14:43.014Z,98275.27
2018-10-09T12:17:13.555Z,98269.90
2018-10-09T12:19:43.266Z,98268.66
2018-10-09T12:22:12.833Z,98261.80
2018-10-09T12:24:42.599Z,98264.79
2018-10-09T12:27:12.238Z,98262.38
2018-10-09T12:29:41.895Z,98275.72
2018-10-09T12:32:11.312Z,98269.66
2018-10-09T12:34:40.911Z,98270.80
2018-10-09T12:37:10.291Z,98261.70
2018-10-09T12:39:39.658Z,98266.03
2018-10-09T12:42:09.000Z,98262.13
2018-10-09T12:44:38.347Z,98260.81
2018-10-09T12:47:07.764Z,98258.95
2018-10-09T12:49:37.034Z,98253.39
2018-10-09T12:52:06.302Z,98259.94
2018-10-09T12:54:35.598Z,98255.87
2018-10-09T12:57:04.885Z,98254.83
2018-10-09T12:59:33.851Z,98251.86
2018-10-09T13:02:03.305Z,98242.91
2018-10-09T13:04:32.733Z,98253.92
2018-10-09T13:07:07.068Z,98244.02
2018-10-09T13:09:36.489Z,98250.53
2018-10-09T13:12:05.643Z,98246.38
2018-10-09T13:14:35.003Z,98242.19
2018-10-09T13:17:04.369Z,98241.92
2018-10-09T13:19:33.825Z,98237.60
2018-10-09T13:22:03.308Z,98241.66
2018-10-09T13:24:33.078Z,98241.07
2018-10-09T13:27:04.798Z,98233.37
2018-10-09T13:29:34.215Z,98231.54
2018-10-09T13:32:03.619Z,98227.61
2018-10-09T13:34:34.556Z,98225.63
2018-10-09T13:37:04.101Z,98226.52
2018-10-09T13:39:33.328Z,98220.12
2018-10-09T13:42:02.610Z,98217.87
2018-10-09T13:44:31.895Z,98221.03
2018-10-09T13:47:01.230Z,98219.71
2018-10-09T13:49:30.462Z,98226.09
2018-10-09T13:51:59.798Z,98218.10
2018-10-09T13:54:29.090Z,98224.03
2018-10-09T13:57:01.175Z,98212.28
2018-10-09T13:59:30.556Z,98223.02
2018-10-09T14:02:00.064Z,98223.88
2018-10-09T14:04:29.543Z,98225.17
2018-10-09T14:06:59.258Z,98218.52
2018-10-09T14:09:28.564Z,98214.55
2018-10-09T14:11:58.259Z,98207.93
2018-10-09T14:14:27.730Z,98203.16
2018-10-09T14:16:57.380Z,98205.34
2018-10-09T14:19:27.759Z,98204.53
2018-10-09T14:21:57.402Z,98198.86
2018-10-09T14:24:27.009Z,98192.41
2018-10-09T14:26:56.606Z,98186.02
2018-10-09T14:29:26.046Z,98191.22
2018-10-09T14:31:55.685Z,98193.58
2018-10-09T14:34:25.343Z,98192.45
2018-10-09T14:36:54.911Z,98187.91
2018-10-09T14:39:24.466Z,98176.20
2018-10-09T14:41:54.064Z,98177.18
2018-10-09T14:44:23.724Z,98169.30
2018-10-09T14:46:53.335Z,98172.70
2018-10-09T14:49:22.845Z,98177.06
2018-10-09T14:51:52.273Z,98185.55
2018-10-09T14:54:21.751Z,98183.44
2018-10-09T14:56:51.275Z,98176.59
2018-10-09T14:59:20.615Z,98175.53
2018-10-09T15:01:50.382Z,98174.07
2018-10-09T15:04:20.017Z,98171.25
2018-10-09T15:06:49.592Z,98172.75
2018-10-09T15:09:18.918Z,98172.12
2018-10-09T15:11:48.327Z,98175.00
2018-10-09T15:14:17.713Z,98173.75
2018-10-09T15:16:47.086Z,98177.00
2018-10-09T15:19:16.319Z,98174.57
2018-10-09T15:21:45.998Z,98173.77
2018-10-09T15:24:15.569Z,98176.63
2018-10-09T15:26:44.962Z,98170.87
2018-10-09T15:29:14.381Z,98177.50
2018-10-09T15:31:43.789Z,98175.48
2018-10-09T15:34:13.248Z,98176.19
2018-10-09T15:36:42.719Z,98178.00
2018-10-09T15:39:13.155Z,98178.58
2018-10-09T15:41:43.250Z,98175.21
2018-10-09T15:44:12.587Z,98177.30
2018-10-09T15:46:41.907Z,98176.78
2018-10-09T15:49:11.196Z,98181.42
2018-10-09T15:51:40.551Z,98179.81
2018-10-09T15:54:09.799Z,98173.83
2018-10-09T15:56:39.293Z,98180.79
2018-10-09T15:59:08.454Z,98179.23
2018-10-09T16:01:37.755Z,98179.23
2018-10-09T16:04:07.305Z,98177.77
2018-10-09T16:06:36.641Z,98172.71
2018-10-09T16:09:08.769Z,98179.23
2018-10-09T16:11:38.041Z,98179.69
2018-10-09T16:14:07.383Z,98178.80
2018-10-09T16:16:36.674Z,98180.59
2018-10-09T16:19:06.400Z,98182.33
2018-10-09T16:21:35.717Z,98180.77
2018-10-09T16:24:07.126Z,98184.34
2018-10-09T16:26:37.784Z,98184.94
2018-10-09T16:29:07.055Z,98193.48
2018-10-09T16:31:36.323Z,98195.01
2018-10-09T16:34:06.587Z,98194.91
2018-10-09T16:36:35.831Z,98193.72
2018-10-09T16:39:08.742Z,98201.70
2018-10-09T16:41:38.241Z,98200.30
2018-10-09T16:44:07.575Z,98200.13
2018-10-09T16:46:37.561Z,98215.89
2018-10-09T16:49:06.919Z,98213.56
2018-10-09T16:51:36.322Z,98210.77
2018-10-09T16:54:05.693Z,98207.92
2018-10-09T16:56:34.955Z,98211.27
2018-10-09T16:59:04.738Z,98214.64
2018-10-09T17:01:34.062Z,98215.45
2018-10-09T17:04:03.427Z,98218.20
2018-10-09T17:06:32.707Z,98220.77
2018-10-09T17:09:01.978Z,98222.47
2018-10-09T17:11:31.303Z,98229.73
2018-10-09T17:14:00.692Z,98227.11
2018-10-09T17:16:30.009Z,98233.08
2018-10-09T17:18:59.351Z,98230.97
2018-10-09T17:21:28.771Z,98241.23
2018-10-09T17:23:58.145Z,98244.48
2018-10-09T17:26:27.397Z,98246.41
2018-10-09T17:28:56.719Z,98243.21
2018-10-09T17:31:27.127Z,98241.63
2018-10-09T17:33:56.532Z,98242.18
2018-10-09T17:36:26.195Z,98248.59
2018-10-09T17:38:55.486Z,98248.06
2018-10-09T17:41:24.758Z,98248.38
2018-10-09T17:43:55.285Z,98249.17
2018-10-09T17:46:24.765Z,98252.67
2018-10-09T17:48:54.202Z,98254.01
2018-10-09T17:51:23.618Z,98259.38
2018-10-09T17:53:53.123Z,98251.62
2018-10-09T17:56:22.573Z,98254.84
2018-10-09T17:58:52.095Z,98251.89
2018-10-09T18:01:21.623Z,98253.78
2018-10-09T18:03:51.354Z,98255.37
2018-10-09T18:06:20.876Z,98251.91
2018-10-09T18:08:50.335Z,98254.59
2018-10-09T18:11:19.657Z,98256.19
2018-10-09T18:13:48.959Z,98254.30
2018-10-09T18:16:18.367Z,98254.57
2018-10-09T18:18:50.297Z,98257.78
2018-10-09T18:21:19.714Z,98252.66
2018-10-09T18:23:49.247Z,98259.09
2018-10-09T18:26:19.978Z,98255.55
2018-10-09T18:28:49.512Z,98252.06
2018-10-09T18:31:19.010Z,98252.88
2018-10-09T18:33:48.388Z,98256.88
2018-10-09T18:36:18.848Z,98257.66
2018-10-09T18:38:52.603Z,98264.09
2018-10-09T18:41:23.897Z,98257.64
2018-10-09T18:43:53.260Z,98260.56
2018-10-09T18:46:22.925Z,98259.72
2018-10-09T18:48:55.250Z,98257.27
2018-10-09T18:51:24.617Z,98264.78
2018-10-09T18:53:55.251Z,98247.77
2018-10-09T18:56:24.732Z,98268.38
2018-10-09T18:58:54.256Z,98270.50
2018-10-09T19:01:25.225Z,98278.21
2018-10-09T19:04:01.589Z,98273.62
2018-10-09T19:06:31.012Z,98272.23
2018-10-09T19:09:01.771Z,98272.00
2018-10-09T19:11:31.635Z,98279.66
2018-10-09T19:14:01.009Z,98279.62
2018-10-09T19:16:30.408Z,98279.81
2018-10-09T19:18:59.678Z,98277.66
2018-10-09T19:21:29.426Z,98275.98
2018-10-09T19:24:05.172Z,98273.01
2018-10-09T19:26:34.514Z,98276.73
2018-10-09T19:29:03.832Z,98286.28
2018-10-09T19:31:33.111Z,98275.92
2018-10-09T19:34:02.391Z,98278.55
2018-10-09T19:36:32.596Z,98276.44
2018-10-09T19:39:03.983Z,98279.64
2018-10-09T19:41:33.409Z,98276.91
2018-10-09T19:44:02.705Z,98275.86
2018-10-09T19:46:33.070Z,98279.06
2018-10-09T19:49:02.313Z,98291.63
2018-10-09T19:51:31.995Z,98282.78
2018-10-09T19:54:01.192Z,98278.44
2018-10-09T19:56:35.948Z,98285.71
2018-10-09T19:59:05.400Z,98291.86
2018-10-09T20:01:34.703Z,98296.11
2018-10-09T20:04:04.108Z,98290.23
2018-10-09T20:06:36.258Z,98291.56
2018-10-09T20:09:11.990Z,98296.10
2018-10-09T20:11:42.274Z,98295.30
2018-10-09T20:14:13.009Z,98293.44
2018-10-09T20:16:42.357Z,98290.19
2018-10-09T20:19:12.276Z,98291.21
2018-10-09T20:21:41.805Z,98289.80
2018-10-09T20:24:11.206Z,98297.86
2018-10-09T20:26:40.535Z,98295.98
2018-10-09T20:29:10.846Z,98293.75
2018-10-09T20:31:40.159Z,98302.02
2018-10-09T20:34:09.545Z,98296.06
2018-10-09T20:36:38.959Z,98294.09
2018-10-09T20:39:08.550Z,98295.65
2018-10-09T20:41:37.851Z,98293.25
2018-10-09T20:44:07.231Z,98295.87
2018-10-09T20:46:36.618Z,98296.58
2018-10-09T20:49:06.200Z,98297.58
2018-10-09T20:51:35.502Z,98305.30
2018-10-09T20:54:04.939Z,98303.13
2018-10-09T20:56:34.317Z,98302.83
2018-10-09T20:59:03.661Z,98296.55
2018-10-09T21:01:32.908Z,98297.88
2018-10-09T21:04:02.240Z,98298.60
2018-10-09T21:06:31.348Z,98300.17
2018-10-09T21:09:00.643Z,98297.95
2018-10-09T21:11:30.092Z,98304.11
2018-10-09T21:13:59.486Z,98302.91
2018-10-09T21:16:28.740Z,98306.35
2018-10-09T21:18:58.154Z,98304.34
2018-10-09T21:21:27.547Z,98301.25
2018-10-09T21:23:57.041Z,98299.83
2018-10-09T21:26:26.533Z,98295.14
2018-10-09T21:28:56.155Z,98303.62
2018-10-09T21:31:25.754Z,98305.59
2018-10-09T21:33:55.295Z,98298.08
2018-10-09T21:36:25.208Z,98292.19
2018-10-09T21:38:54.979Z,98294.52
2018-10-09T21:41:24.892Z,98300.66
2018-10-09T21:43:54.700Z,98301.19
2018-10-09T21:46:24.469Z,98296.86
2018-10-09T21:48:53.986Z,98297.30
2018-10-09T21:51:23.609Z,98292.94
2018-10-09T21:53:53.007Z,98286.67
2018-10-09T21:56:22.384Z,98289.53
2018-10-09T21:58:52.002Z,98283.17
2018-10-09T22:01:21.770Z,98282.16
2018-10-09T22:03:51.244Z,98278.36
2018-10-09T22:06:20.757Z,98276.44
2018-10-09T22:08:50.231Z,98276.19
2018-10-09T22:11:19.781Z,98282.52
2018-10-09T22:13:49.109Z,98280.53
2018-10-09T22:16:18.547Z,98280.95
2018-10-09T22:18:47.914Z,98280.69
2018-10-09T22:21:17.331Z,98282.50
2018-10-09T22:23:46.609Z,98277.02
2018-10-09T22:26:15.891Z,98281.78
2018-10-09T22:28:45.128Z,98278.80
2018-10-09T22:31:14.418Z,98279.17
2018-10-09T22:33:44.402Z,98272.44
2018-10-09T22:36:13.775Z,98275.81
2018-10-09T22:38:43.078Z,98277.81
2018-10-09T22:41:12.335Z,98280.14
2018-10-09T22:43:41.605Z,98274.30
2018-10-09T22:46:10.895Z,98275.44
2018-10-09T22:48:40.203Z,98272.00
2018-10-09T22:51:09.542Z,98275.73
2018-10-09T22:53:38.860Z,98271.11
2018-10-09T22:56:08.215Z,98272.00
2018-10-09T22:58:37.447Z,98273.85
2018-10-09T23:01:06.972Z,98264.53
2018-10-09T23:03:36.224Z,98262.05
2018-10-09T23:06:05.583Z,98265.98
2018-10-09T23:08:35.048Z,98268.44
2018-10-09T23:11:04.358Z,98270.18
2018-10-09T23:13:33.622Z,98273.20
2018-10-09T23:16:03.058Z,98269.86
2018-10-09T23:18:32.305Z,98277.63
2018-10-09T23:21:01.731Z,98270.72
2018-10-09T23:23:31.060Z,98268.31
2018-10-09T23:26:00.417Z,98268.83
2018-10-09T23:28:29.647Z,98264.89
2018-10-09T23:30:58.970Z,98254.26
2018-10-09T23:33:28.260Z,98269.88
2018-10-09T23:35:57.595Z,98262.54
2018-10-09T23:38:26.918Z,98262.13
2018-10-09T23:40:57.526Z,98261.43
2018-10-09T23:43:26.889Z,98260.16
2018-10-09T23:45:56.305Z,98258.87
2018-10-09T23:48:25.681Z,98259.69
2018-10-09T23:50:55.190Z,98253.79
2018-10-09T23:53:24.744Z,98246.91
2018-10-09T23:55:54.335Z,98245.85
2018-10-09T23:58:23.955Z,98245.33
